KMKO

Muskogee-Davis Regional Airport

Muskogee, Oklahoma, USA
METAR KMKO 201453Z AUTO 20022G33KT 10SM BKN110 21/16 A2988 RMK AO2 PK WND 20034/1441 PRESRR SLP115 60018 T02060161 53021
Observed Flight Rules
Feb-20 @ 14:53 UTC (2 hours ago) Visual Flight Rules
Wind Visibility Clouds
200° at 22 knots
 Gusting to 33 knots
10 miles
  • Broken at 11,000' AGL
Temperatures Readings
Current 21°C / 70°F
Dewpoint 16°C / 61°F
Humidity 73%
Altimeter 29.88" Hg
Pressure 1011.5 hPa
Elevation 185
METAR KMKO 201453Z AUTO 20022G33KT 10SM BKN110 21/16 A2988 RMK AO2 PK WND 20034/1441 PRESRR SLP115 60018 T02060161 53021
Observed Flight Rules
Feb-20 @ 14:53 UTC
(2 hours ago)
VFR
Wind Visibility
200° at 22 knots
 Gusting to 33 knots
10 miles
Clouds
  • Broken at 11,000' AGL
Temperature Dewpoint
21°C / 70°F 16°C / 61°F
Humidity Altimeter Pressure
73% 29.88" Hg 1011.5 hPa